createdAt,value
2023-04-16T00:00:56.275Z,1004.77
2023-04-16T00:01:56.352Z,1004.77
2023-04-16T00:02:56.331Z,1004.77
2023-04-16T00:03:56.517Z,1004.81
2023-04-16T00:04:56.293Z,1004.78
2023-04-16T00:05:56.211Z,1004.76
2023-04-16T00:07:01.209Z,1004.75
2023-04-16T00:07:56.177Z,1004.83
2023-04-16T00:08:56.163Z,1004.73
2023-04-16T00:09:56.176Z,1004.80
2023-04-16T00:10:56.189Z,1004.78
2023-04-16T00:11:56.140Z,1004.79
2023-04-16T00:12:56.135Z,1004.78
2023-04-16T00:13:56.119Z,1004.86
2023-04-16T00:14:56.101Z,1004.72
2023-04-16T00:15:56.120Z,1004.81
2023-04-16T00:16:56.174Z,1004.84
2023-04-16T00:18:01.128Z,1004.83
2023-04-16T00:18:56.053Z,1004.83
2023-04-16T00:19:56.042Z,1004.84
2023-04-16T00:20:56.044Z,1004.88
2023-04-16T00:21:56.017Z,1004.82
2023-04-16T00:22:56.042Z,1004.87
2023-04-16T00:23:55.998Z,1004.85
2023-04-16T00:24:55.987Z,1004.82
2023-04-16T00:25:56.004Z,1004.82
2023-04-16T00:26:55.970Z,1004.78
2023-04-16T00:27:55.976Z,1004.85
2023-04-16T00:29:01.000Z,1004.80
2023-04-16T00:29:55.931Z,1004.81
2023-04-16T00:30:55.960Z,1004.74
2023-04-16T00:31:55.911Z,1004.81
2023-04-16T00:32:55.973Z,1004.75
2023-04-16T00:33:55.882Z,1004.76
2023-04-16T00:34:55.898Z,1004.81
2023-04-16T00:35:55.868Z,1004.79
2023-04-16T00:36:55.858Z,1004.81
2023-04-16T00:37:55.839Z,1004.84
2023-04-16T00:38:55.845Z,1004.83
2023-04-16T00:40:00.837Z,1004.80
2023-04-16T00:40:55.839Z,1004.82
2023-04-16T00:41:55.814Z,1004.83
2023-04-16T00:42:55.786Z,1004.85
2023-04-16T00:43:55.771Z,1004.88
2023-04-16T00:44:55.762Z,1004.83
2023-04-16T00:45:55.793Z,1004.85
2023-04-16T00:46:55.787Z,1004.91
2023-04-16T00:47:55.777Z,1004.82
2023-04-16T00:48:55.721Z,1004.93
2023-04-16T00:49:55.707Z,1004.88
2023-04-16T00:51:00.725Z,1004.87
2023-04-16T00:51:55.732Z,1004.86
2023-04-16T00:52:55.685Z,1004.90
2023-04-16T00:53:55.654Z,1004.90
2023-04-16T00:54:55.656Z,1004.96
2023-04-16T00:55:55.655Z,1004.95
2023-04-16T00:56:55.619Z,1004.89
2023-04-16T00:57:55.660Z,1004.95
2023-04-16T00:58:55.637Z,1004.91
2023-04-16T00:59:55.595Z,1004.97
2023-04-16T01:00:55.589Z,1004.94
2023-04-16T01:02:00.661Z,1004.91
2023-04-16T01:02:55.702Z,1004.95
2023-04-16T01:03:55.670Z,1004.97
2023-04-16T01:04:55.551Z,1004.98
2023-04-16T01:05:55.546Z,1004.95
2023-04-16T01:06:55.511Z,1004.93
2023-04-16T01:07:55.500Z,1004.92
2023-04-16T01:08:55.486Z,1005.02
2023-04-16T01:09:55.482Z,1004.96
2023-04-16T01:10:55.497Z,1005.00
2023-04-16T01:11:55.464Z,1004.98
2023-04-16T01:13:00.492Z,1004.96
2023-04-16T01:13:55.440Z,1005.05
2023-04-16T01:14:55.423Z,1004.98
2023-04-16T01:15:55.450Z,1004.98
2023-04-16T01:16:55.442Z,1004.99
2023-04-16T01:17:55.412Z,1005.03
2023-04-16T01:18:55.374Z,1004.99
2023-04-16T01:19:55.362Z,1005.01
2023-04-16T01:20:55.358Z,1005.03
2023-04-16T01:21:55.352Z,1005.08
2023-04-16T01:22:55.353Z,1005.02
2023-04-16T01:24:00.340Z,1005.09
2023-04-16T01:24:55.308Z,1004.99
2023-04-16T01:25:55.296Z,1005.02
2023-04-16T01:26:55.298Z,1005.00
2023-04-16T01:27:55.276Z,1004.99
2023-04-16T01:28:55.316Z,1004.95
2023-04-16T01:29:55.249Z,1004.99
2023-04-16T01:30:55.238Z,1005.03
2023-04-16T01:31:55.239Z,1005.00
2023-04-16T01:32:55.250Z,1005.03
2023-04-16T01:33:55.209Z,1005.00
2023-04-16T01:35:00.256Z,1005.01
2023-04-16T01:35:55.181Z,1005.06
2023-04-16T01:36:55.188Z,1005.08
2023-04-16T01:37:55.159Z,1005.03
2023-04-16T01:38:55.159Z,1005.05
2023-04-16T01:39:55.137Z,1005.06
2023-04-16T01:40:55.161Z,1005.06
2023-04-16T01:41:55.122Z,1005.10
2023-04-16T01:42:55.124Z,1005.07
2023-04-16T01:43:55.104Z,1005.11
2023-04-16T01:44:55.102Z,1005.10
2023-04-16T01:46:00.119Z,1005.09
2023-04-16T01:46:55.172Z,1005.14
2023-04-16T01:47:55.103Z,1005.19
2023-04-16T01:48:55.034Z,1005.16
2023-04-16T01:49:55.024Z,1005.16
2023-04-16T01:50:55.058Z,1005.16
2023-04-16T01:51:55.010Z,1005.18
2023-04-16T01:52:55.014Z,1005.21
2023-04-16T01:53:54.980Z,1005.21
2023-04-16T01:54:54.974Z,1005.19
2023-04-16T01:55:54.961Z,1005.19
2023-04-16T01:56:59.977Z,1005.19
2023-04-16T01:57:54.934Z,1005.14
2023-04-16T01:58:54.974Z,1005.19
2023-04-16T01:59:54.910Z,1005.17
2023-04-16T02:00:54.957Z,1005.19
2023-04-16T02:01:55.047Z,1005.26
2023-04-16T02:02:55.030Z,1005.24
2023-04-16T02:03:55.061Z,1005.24
2023-04-16T02:04:54.882Z,1005.22
2023-04-16T02:05:54.861Z,1005.20
2023-04-16T02:06:54.850Z,1005.23
2023-04-16T02:07:59.844Z,1005.19
2023-04-16T02:08:54.810Z,1005.20
2023-04-16T02:09:54.854Z,1005.28
2023-04-16T02:10:54.840Z,1005.20
2023-04-16T02:11:54.789Z,1005.22
2023-04-16T02:12:54.769Z,1005.22
2023-04-16T02:13:54.763Z,1005.22
2023-04-16T02:14:54.746Z,1005.15
2023-04-16T02:15:54.728Z,1005.16
2023-04-16T02:16:54.903Z,1005.25
2023-04-16T02:17:54.752Z,1005.17
2023-04-16T02:18:59.719Z,1005.18
2023-04-16T02:19:54.688Z,1005.16
2023-04-16T02:20:54.673Z,1005.19
2023-04-16T02:21:54.664Z,1005.20
2023-04-16T02:22:54.671Z,1005.22
2023-04-16T02:23:54.636Z,1005.21
2023-04-16T02:24:54.628Z,1005.21
2023-04-16T02:25:54.612Z,1005.24
2023-04-16T02:26:54.615Z,1005.22
2023-04-16T02:27:54.596Z,1005.24
2023-04-16T02:28:54.626Z,1005.24
2023-04-16T02:29:59.593Z,1005.24
2023-04-16T02:30:54.555Z,1005.29
2023-04-16T02:31:54.681Z,1005.26
2023-04-16T02:32:54.632Z,1005.28
2023-04-16T02:33:54.533Z,1005.18
2023-04-16T02:34:54.549Z,1005.26
2023-04-16T02:35:54.504Z,1005.19
2023-04-16T02:36:54.497Z,1005.21
2023-04-16T02:37:54.477Z,1005.27
2023-04-16T02:38:54.484Z,1005.23
2023-04-16T02:39:54.454Z,1005.26
2023-04-16T02:40:59.593Z,1005.25
2023-04-16T02:41:54.453Z,1005.29
2023-04-16T02:42:54.421Z,1005.31
2023-04-16T02:43:54.421Z,1005.31
2023-04-16T02:44:54.399Z,1005.26
2023-04-16T02:45:54.425Z,1005.29
2023-04-16T02:46:54.403Z,1005.32
2023-04-16T02:47:54.435Z,1005.36
2023-04-16T02:48:54.429Z,1005.33
2023-04-16T02:49:54.347Z,1005.34
2023-04-16T02:50:54.330Z,1005.31
2023-04-16T02:51:59.354Z,1005.32
2023-04-16T02:52:54.336Z,1005.36
2023-04-16T02:53:54.295Z,1005.36
2023-04-16T02:54:54.294Z,1005.34
2023-04-16T02:55:54.290Z,1005.38
2023-04-16T02:56:54.278Z,1005.35
2023-04-16T02:57:54.255Z,1005.35
2023-04-16T02:58:54.252Z,1005.35
2023-04-16T02:59:54.229Z,1005.39
2023-04-16T03:00:54.322Z,1005.39
2023-04-16T03:01:54.376Z,1005.42
2023-04-16T03:02:59.325Z,1005.40
2023-04-16T03:03:54.197Z,1005.33
2023-04-16T03:04:54.201Z,1005.35
2023-04-16T03:05:54.160Z,1005.32
2023-04-16T03:06:54.152Z,1005.38
2023-04-16T03:07:54.148Z,1005.35
2023-04-16T03:08:54.131Z,1005.35
2023-04-16T03:09:54.120Z,1005.37
2023-04-16T03:10:54.130Z,1005.39
2023-04-16T03:11:54.093Z,1005.33
2023-04-16T03:12:54.092Z,1005.35
2023-04-16T03:13:59.092Z,1005.35
2023-04-16T03:14:54.067Z,1005.29
2023-04-16T03:15:54.101Z,1005.29
2023-04-16T03:16:54.059Z,1005.41
2023-04-16T03:17:54.093Z,1005.38
2023-04-16T03:18:54.020Z,1005.36
2023-04-16T03:19:54.002Z,1005.44
2023-04-16T03:20:54.007Z,1005.37
2023-04-16T03:21:54.010Z,1005.35
2023-04-16T03:22:54.006Z,1005.43
2023-04-16T03:23:53.967Z,1005.45
2023-04-16T03:24:58.974Z,1005.43
2023-04-16T03:25:53.939Z,1005.35
2023-04-16T03:26:53.926Z,1005.41
2023-04-16T03:27:53.921Z,1005.41
2023-04-16T03:28:53.936Z,1005.44
2023-04-16T03:29:53.889Z,1005.50
2023-04-16T03:30:53.941Z,1005.46
2023-04-16T03:31:53.870Z,1005.44
2023-04-16T03:32:53.899Z,1005.53
2023-04-16T03:33:53.845Z,1005.49
2023-04-16T03:34:53.889Z,1005.57
2023-04-16T03:35:58.861Z,1005.54
2023-04-16T03:36:53.812Z,1005.55
2023-04-16T03:37:53.814Z,1005.48
2023-04-16T03:38:53.791Z,1005.55
2023-04-16T03:39:53.780Z,1005.56
2023-04-16T03:40:53.810Z,1005.58
2023-04-16T03:41:53.757Z,1005.56
2023-04-16T03:42:53.750Z,1005.56
2023-04-16T03:43:53.746Z,1005.51
2023-04-16T03:44:53.727Z,1005.53
2023-04-16T03:45:53.710Z,1005.58
2023-04-16T03:46:58.909Z,1005.64
2023-04-16T03:47:53.753Z,1005.65
2023-04-16T03:48:53.671Z,1005.58
2023-04-16T03:49:53.666Z,1005.57
2023-04-16T03:50:53.652Z,1005.63
2023-04-16T03:51:53.660Z,1005.51
2023-04-16T03:52:53.667Z,1005.56
2023-04-16T03:53:53.618Z,1005.57
2023-04-16T03:54:53.605Z,1005.52
2023-04-16T03:55:53.603Z,1005.58
2023-04-16T03:56:53.586Z,1005.60
2023-04-16T03:57:58.631Z,1005.57
2023-04-16T03:58:53.603Z,1005.61
2023-04-16T03:59:53.569Z,1005.57
2023-04-16T04:00:53.538Z,1005.62
2023-04-16T04:01:53.644Z,1005.59
2023-04-16T04:02:53.719Z,1005.60
2023-04-16T04:03:53.622Z,1005.60
2023-04-16T04:04:53.646Z,1005.60
2023-04-16T04:05:53.489Z,1005.62
2023-04-16T04:06:53.475Z,1005.63
2023-04-16T04:07:53.510Z,1005.58
2023-04-16T04:08:58.511Z,1005.53
2023-04-16T04:09:53.438Z,1005.59
2023-04-16T04:10:53.444Z,1005.68
2023-04-16T04:11:53.425Z,1005.61
2023-04-16T04:12:53.412Z,1005.59
2023-04-16T04:13:53.394Z,1005.69
2023-04-16T04:14:53.395Z,1005.67
2023-04-16T04:15:53.383Z,1005.66
2023-04-16T04:16:53.412Z,1005.69
2023-04-16T04:17:53.371Z,1005.65
2023-04-16T04:18:53.337Z,1005.66
2023-04-16T04:20:01.244Z,1005.73
2023-04-16T04:20:53.327Z,1005.69
2023-04-16T04:21:53.308Z,1005.69
2023-04-16T04:22:53.352Z,1005.68
2023-04-16T04:23:54.429Z,1005.71
2023-04-16T04:24:53.272Z,1005.75
2023-04-16T04:25:53.290Z,1005.69
2023-04-16T04:26:53.245Z,1005.66
2023-04-16T04:27:53.247Z,1005.67
2023-04-16T04:28:53.273Z,1005.69
2023-04-16T04:29:53.213Z,1005.66
2023-04-16T04:30:58.220Z,1005.67
2023-04-16T04:31:53.216Z,1005.68
2023-04-16T04:32:53.220Z,1005.72
2023-04-16T04:33:53.215Z,1005.72
2023-04-16T04:34:53.160Z,1005.71
2023-04-16T04:35:53.141Z,1005.74
2023-04-16T04:36:53.129Z,1005.76
2023-04-16T04:37:53.134Z,1005.73
2023-04-16T04:38:53.121Z,1005.79
2023-04-16T04:39:53.133Z,1005.75
2023-04-16T04:40:53.083Z,1005.76
2023-04-16T04:41:58.099Z,1005.81
2023-04-16T04:42:53.074Z,1005.83
2023-04-16T04:43:53.049Z,1005.81
2023-04-16T04:44:53.043Z,1005.80
2023-04-16T04:45:53.051Z,1005.86
2023-04-16T04:46:53.029Z,1005.83
2023-04-16T04:47:53.101Z,1005.83
2023-04-16T04:48:53.010Z,1005.83
2023-04-16T04:49:52.982Z,1005.88
2023-04-16T04:50:52.972Z,1005.87
2023-04-16T04:51:53.007Z,1005.93
2023-04-16T04:52:57.985Z,1005.94
2023-04-16T04:53:52.939Z,1005.91
2023-04-16T04:54:52.930Z,1005.96
2023-04-16T04:55:55.627Z,1006.00
2023-04-16T04:56:53.921Z,1006.02
2023-04-16T04:57:52.907Z,1005.98
2023-04-16T04:58:52.881Z,1006.05
2023-04-16T04:59:52.872Z,1006.05
2023-04-16T05:00:52.886Z,1006.04
2023-04-16T05:01:52.878Z,1006.04
2023-04-16T05:02:52.939Z,1006.12
2023-04-16T05:03:57.916Z,1006.10
2023-04-16T05:04:52.838Z,1006.13
2023-04-16T05:05:52.803Z,1006.16
2023-04-16T05:06:52.800Z,1006.09
2023-04-16T05:07:52.798Z,1006.14
2023-04-16T05:08:52.839Z,1006.09
2023-04-16T05:09:52.865Z,1006.18
2023-04-16T05:10:52.789Z,1006.20
2023-04-16T05:11:52.789Z,1006.16
2023-04-16T05:12:52.733Z,1006.18
2023-04-16T05:13:52.711Z,1006.26
2023-04-16T05:14:57.728Z,1006.13
2023-04-16T05:15:52.712Z,1006.23
2023-04-16T05:16:52.725Z,1006.14
2023-04-16T05:17:52.704Z,1006.15
2023-04-16T05:18:52.676Z,1006.20
2023-04-16T05:19:52.646Z,1006.21
2023-04-16T05:20:52.656Z,1006.23
2023-04-16T05:21:52.659Z,1006.20
2023-04-16T05:22:52.629Z,1006.22
2023-04-16T05:23:52.600Z,1006.22
2023-04-16T05:24:52.589Z,1006.25
2023-04-16T05:25:57.598Z,1006.24
2023-04-16T05:26:52.569Z,1006.27
2023-04-16T05:27:52.596Z,1006.25
2023-04-16T05:28:52.549Z,1006.28
2023-04-16T05:29:52.541Z,1006.27
2023-04-16T05:30:52.566Z,1006.28
2023-04-16T05:31:52.513Z,1006.28
2023-04-16T05:32:52.532Z,1006.28
2023-04-16T05:33:52.545Z,1006.29
2023-04-16T05:34:52.475Z,1006.38
2023-04-16T05:35:52.466Z,1006.35
2023-04-16T05:36:57.492Z,1006.32
2023-04-16T05:37:52.460Z,1006.33
2023-04-16T05:38:52.436Z,1006.33
2023-04-16T05:39:52.518Z,1006.37
2023-04-16T05:40:52.403Z,1006.36
2023-04-16T05:41:52.391Z,1006.39
2023-04-16T05:42:52.404Z,1006.38
2023-04-16T05:43:52.388Z,1006.31
2023-04-16T05:44:52.378Z,1006.39
2023-04-16T05:45:52.383Z,1006.37
2023-04-16T05:46:52.338Z,1006.43
2023-04-16T05:47:57.438Z,1006.43
2023-04-16T05:48:52.323Z,1006.44
2023-04-16T05:49:52.303Z,1006.40
2023-04-16T05:50:52.289Z,1006.47
2023-04-16T05:51:52.350Z,1006.45
2023-04-16T05:52:52.280Z,1006.43
2023-04-16T05:53:52.256Z,1006.44
2023-04-16T05:54:52.247Z,1006.39
2023-04-16T05:55:52.237Z,1006.43
2023-04-16T05:56:52.226Z,1006.52
2023-04-16T05:57:52.235Z,1006.45
2023-04-16T05:58:57.354Z,1006.46
2023-04-16T05:59:52.206Z,1006.52
2023-04-16T06:00:52.222Z,1006.48
2023-04-16T06:01:52.263Z,1006.50
2023-04-16T06:02:52.248Z,1006.56
2023-04-16T06:03:52.227Z,1006.54
2023-04-16T06:04:52.137Z,1006.50
2023-04-16T06:05:52.149Z,1006.65
2023-04-16T06:06:52.113Z,1006.55
2023-04-16T06:07:52.119Z,1006.49
2023-04-16T06:08:52.102Z,1006.54
2023-04-16T06:09:57.135Z,1006.55
2023-04-16T06:10:52.066Z,1006.55
2023-04-16T06:11:52.054Z,1006.60
2023-04-16T06:12:52.056Z,1006.60
2023-04-16T06:13:52.027Z,1006.64
2023-04-16T06:14:52.053Z,1006.63
2023-04-16T06:15:52.123Z,1006.66
2023-04-16T06:16:52.000Z,1006.70
2023-04-16T06:17:52.023Z,1006.60
2023-04-16T06:18:51.984Z,1006.64
2023-04-16T06:19:51.971Z,1006.69
2023-04-16T06:20:56.977Z,1006.69
2023-04-16T06:21:51.956Z,1006.72
2023-04-16T06:22:51.946Z,1006.71
2023-04-16T06:23:51.917Z,1006.73
2023-04-16T06:24:51.907Z,1006.74
2023-04-16T06:25:51.891Z,1006.78
2023-04-16T06:26:51.884Z,1006.72
2023-04-16T06:27:51.949Z,1006.78
2023-04-16T06:28:51.884Z,1006.79
2023-04-16T06:29:51.887Z,1006.81
2023-04-16T06:30:51.854Z,1006.79
2023-04-16T06:31:56.850Z,1006.78
2023-04-16T06:32:51.863Z,1006.78
2023-04-16T06:33:51.831Z,1006.79
2023-04-16T06:34:51.800Z,1006.77
2023-04-16T06:35:51.790Z,1006.78
2023-04-16T06:36:51.771Z,1006.81
2023-04-16T06:37:51.763Z,1006.79
2023-04-16T06:38:51.750Z,1006.81
2023-04-16T06:39:51.764Z,1006.82
2023-04-16T06:40:51.731Z,1006.82
2023-04-16T06:41:51.709Z,1006.80
2023-04-16T06:42:56.732Z,1006.82
2023-04-16T06:43:51.683Z,1006.84
2023-04-16T06:44:51.744Z,1006.91
2023-04-16T06:45:51.695Z,1006.87
2023-04-16T06:46:51.775Z,1006.91
2023-04-16T06:47:51.682Z,1006.93
2023-04-16T06:48:51.645Z,1006.94
2023-04-16T06:49:51.621Z,1006.94
2023-04-16T06:50:51.609Z,1006.93
2023-04-16T06:51:51.626Z,1006.94
2023-04-16T06:52:51.586Z,1006.87
2023-04-16T06:53:56.607Z,1006.87
2023-04-16T06:54:51.611Z,1006.99
2023-04-16T06:55:51.560Z,1006.92
2023-04-16T06:56:51.552Z,1006.91
2023-04-16T06:57:51.606Z,1006.94
2023-04-16T06:58:51.533Z,1007.00
2023-04-16T06:59:51.537Z,1006.96
2023-04-16T07:00:51.544Z,1006.94
2023-04-16T07:01:51.594Z,1006.95
2023-04-16T07:02:51.686Z,1006.95
2023-04-16T07:03:51.680Z,1006.88
2023-04-16T07:04:56.476Z,1007.01
2023-04-16T07:05:51.444Z,1006.94
2023-04-16T07:06:51.433Z,1006.89
2023-04-16T07:07:51.422Z,1006.94
2023-04-16T07:08:51.424Z,1006.96
2023-04-16T07:09:51.465Z,1007.01
2023-04-16T07:10:51.383Z,1007.01
2023-04-16T07:11:51.380Z,1006.97
2023-04-16T07:12:51.373Z,1006.96
2023-04-16T07:13:51.364Z,1006.96
2023-04-16T07:14:51.338Z,1007.01
2023-04-16T07:15:56.395Z,1006.93
2023-04-16T07:16:51.393Z,1006.97
2023-04-16T07:17:51.341Z,1006.98
2023-04-16T07:18:51.323Z,1007.00
2023-04-16T07:19:51.295Z,1006.97
2023-04-16T07:20:51.287Z,1007.02
2023-04-16T07:21:51.304Z,1006.98
2023-04-16T07:22:51.250Z,1006.98
2023-04-16T07:23:51.248Z,1006.90
2023-04-16T07:24:51.232Z,1006.97
2023-04-16T07:25:51.218Z,1006.95
2023-04-16T07:26:56.236Z,1007.04
2023-04-16T07:27:51.211Z,1006.99
2023-04-16T07:28:51.196Z,1007.01
2023-04-16T07:29:51.173Z,1007.00
2023-04-16T07:30:51.159Z,1007.05
2023-04-16T07:31:51.222Z,1007.04
2023-04-16T07:32:51.147Z,1006.99
2023-04-16T07:33:51.288Z,1007.02
2023-04-16T07:34:51.133Z,1007.06
2023-04-16T07:35:51.105Z,1007.07
2023-04-16T07:36:51.101Z,1007.10
2023-04-16T07:37:56.103Z,1007.10
2023-04-16T07:38:51.080Z,1007.10
2023-04-16T07:39:51.089Z,1007.12
2023-04-16T07:40:51.051Z,1007.15
2023-04-16T07:41:51.035Z,1007.12
2023-04-16T07:42:51.026Z,1007.19
2023-04-16T07:43:51.027Z,1007.10
2023-04-16T07:44:50.999Z,1007.14
2023-04-16T07:45:51.061Z,1007.13
2023-04-16T07:46:51.053Z,1007.12
2023-04-16T07:47:51.026Z,1007.09
2023-04-16T07:48:56.031Z,1007.17
2023-04-16T07:49:50.946Z,1007.12
2023-04-16T07:50:50.960Z,1007.23
2023-04-16T07:51:50.956Z,1007.20
2023-04-16T07:52:50.913Z,1007.18
2023-04-16T07:53:50.923Z,1007.25
2023-04-16T07:54:50.892Z,1007.24
2023-04-16T07:55:50.887Z,1007.23
2023-04-16T07:56:50.865Z,1007.18
2023-04-16T07:57:50.910Z,1007.25
2023-04-16T07:58:50.897Z,1007.18
2023-04-16T07:59:55.869Z,1007.21
2023-04-16T08:00:51.120Z,1007.19
2023-04-16T08:01:50.878Z,1007.22
2023-04-16T08:02:51.016Z,1007.26
2023-04-16T08:03:50.972Z,1007.25
2023-04-16T08:04:50.975Z,1007.23
2023-04-16T08:05:50.771Z,1007.32
2023-04-16T08:06:50.778Z,1007.31
2023-04-16T08:07:50.746Z,1007.38
2023-04-16T08:08:50.747Z,1007.35
2023-04-16T08:09:50.766Z,1007.33
2023-04-16T08:10:55.861Z,1007.30
2023-04-16T08:11:50.730Z,1007.36
2023-04-16T08:12:50.699Z,1007.39
2023-04-16T08:13:50.685Z,1007.34
2023-04-16T08:14:50.663Z,1007.30
2023-04-16T08:15:50.725Z,1007.34
2023-04-16T08:16:50.653Z,1007.31
2023-04-16T08:17:50.668Z,1007.33
2023-04-16T08:18:50.626Z,1007.32
2023-04-16T08:19:50.612Z,1007.39
2023-04-16T08:20:50.607Z,1007.39
2023-04-16T08:21:55.642Z,1007.41
2023-04-16T08:22:50.590Z,1007.34
2023-04-16T08:23:50.579Z,1007.37
2023-04-16T08:24:50.553Z,1007.41
2023-04-16T08:25:52.504Z,1007.36
2023-04-16T08:26:50.568Z,1007.44
2023-04-16T08:27:50.544Z,1007.35
2023-04-16T08:28:50.520Z,1007.31
2023-04-16T08:29:50.497Z,1007.41
2023-04-16T08:30:50.493Z,1007.41
2023-04-16T08:31:50.525Z,1007.43
2023-04-16T08:32:55.514Z,1007.43
2023-04-16T08:33:50.466Z,1007.45
2023-04-16T08:34:50.504Z,1007.42
2023-04-16T08:35:50.427Z,1007.47
2023-04-16T08:36:50.421Z,1007.48
2023-04-16T08:37:50.425Z,1007.50
2023-04-16T08:38:50.440Z,1007.49
2023-04-16T08:39:50.408Z,1007.50
2023-04-16T08:40:50.374Z,1007.52
2023-04-16T08:41:50.356Z,1007.56
2023-04-16T08:42:50.350Z,1007.50
2023-04-16T08:43:55.422Z,1007.56
2023-04-16T08:44:50.334Z,1007.56
2023-04-16T08:45:50.318Z,1007.57
2023-04-16T08:46:50.341Z,1007.54
2023-04-16T08:47:50.321Z,1007.58
2023-04-16T08:48:50.336Z,1007.57
2023-04-16T08:49:50.278Z,1007.63
2023-04-16T08:50:50.277Z,1007.65
2023-04-16T08:51:50.244Z,1007.68
2023-04-16T08:52:50.241Z,1007.62
2023-04-16T08:53:50.272Z,1007.67
2023-04-16T08:54:57.106Z,1007.62
2023-04-16T08:55:50.199Z,1007.68
2023-04-16T08:56:50.185Z,1007.69
2023-04-16T08:57:50.177Z,1007.72
2023-04-16T08:58:50.169Z,1007.70
2023-04-16T08:59:50.168Z,1007.74
2023-04-16T09:00:50.162Z,1007.77
2023-04-16T09:01:50.203Z,1007.78
2023-04-16T09:02:50.309Z,1007.78
2023-04-16T09:03:50.201Z,1007.78
2023-04-16T09:04:50.188Z,1007.73
2023-04-16T09:05:55.130Z,1007.72
2023-04-16T09:06:50.118Z,1007.81
2023-04-16T09:07:50.063Z,1007.77
2023-04-16T09:08:50.051Z,1007.80
2023-04-16T09:09:50.076Z,1007.80
2023-04-16T09:10:50.035Z,1007.85
2023-04-16T09:11:50.023Z,1007.83
2023-04-16T09:12:50.196Z,1007.85
2023-04-16T09:13:49.995Z,1007.85
2023-04-16T09:14:49.996Z,1007.86
2023-04-16T09:15:50.986Z,1007.85
2023-04-16T09:16:54.984Z,1007.94
2023-04-16T09:17:49.963Z,1007.91
2023-04-16T09:18:49.958Z,1007.95
2023-04-16T09:19:49.938Z,1007.87
2023-04-16T09:20:49.930Z,1007.96
2023-04-16T09:21:49.927Z,1007.93
2023-04-16T09:22:49.902Z,1007.90
2023-04-16T09:23:49.894Z,1007.87
2023-04-16T09:24:49.890Z,1007.93
2023-04-16T09:25:49.933Z,1007.90
2023-04-16T09:26:49.875Z,1007.93
2023-04-16T09:27:54.887Z,1008.02
2023-04-16T09:28:50.013Z,1008.09
2023-04-16T09:29:50.042Z,1007.97
2023-04-16T09:30:49.845Z,1007.98
2023-04-16T09:31:50.056Z,1007.99
2023-04-16T09:32:49.965Z,1007.99
2023-04-16T09:33:50.066Z,1007.95
2023-04-16T09:34:49.904Z,1007.94
2023-04-16T09:35:49.826Z,1008.05
2023-04-16T09:36:49.809Z,1007.98
2023-04-16T09:37:49.772Z,1008.03
2023-04-16T09:38:57.433Z,1008.04
2023-04-16T09:39:50.019Z,1007.99
2023-04-16T09:40:49.730Z,1008.02
2023-04-16T09:41:49.766Z,1008.06
2023-04-16T09:42:50.426Z,1007.97
2023-04-16T09:43:49.821Z,1008.00
2023-04-16T09:44:49.789Z,1008.06
2023-04-16T09:45:49.789Z,1008.05
2023-04-16T09:46:49.978Z,1008.03
2023-04-16T09:47:49.709Z,1008.06
2023-04-16T09:48:49.729Z,1008.09
2023-04-16T09:49:54.976Z,1008.05
2023-04-16T09:50:49.622Z,1008.06
2023-04-16T09:51:49.672Z,1008.07
2023-04-16T09:52:49.633Z,1008.05
2023-04-16T09:53:49.582Z,1008.11
2023-04-16T09:54:49.702Z,1008.07
2023-04-16T09:55:49.666Z,1008.07
2023-04-16T09:56:49.760Z,1008.09
2023-04-16T09:57:49.795Z,1008.06
2023-04-16T09:58:49.602Z,1008.04
2023-04-16T09:59:49.625Z,1008.07
2023-04-16T10:00:54.604Z,1008.13
2023-04-16T10:01:49.840Z,1008.10
2023-04-16T10:02:50.726Z,1008.10
2023-04-16T10:03:49.685Z,1008.10
2023-04-16T10:04:49.597Z,1008.16
2023-04-16T10:05:49.497Z,1008.18
2023-04-16T10:06:49.462Z,1008.12
2023-04-16T10:07:49.492Z,1008.12
2023-04-16T10:08:50.194Z,1008.09
2023-04-16T10:09:49.395Z,1008.07
2023-04-16T10:10:49.589Z,1008.06
2023-04-16T10:12:01.927Z,1008.12
2023-04-16T10:12:49.329Z,1008.20
2023-04-16T10:13:49.344Z,1008.18
2023-04-16T10:14:50.423Z,1008.13
2023-04-16T10:15:49.306Z,1008.21
2023-04-16T10:16:49.335Z,1008.14
2023-04-16T10:17:49.288Z,1008.16
2023-04-16T10:18:49.289Z,1008.15
2023-04-16T10:19:49.256Z,1008.23
2023-04-16T10:20:49.251Z,1008.15
2023-04-16T10:21:49.261Z,1008.18
2023-04-16T10:22:54.240Z,1008.18
2023-04-16T10:23:49.236Z,1008.23
2023-04-16T10:24:49.207Z,1008.25
2023-04-16T10:25:49.211Z,1008.24
2023-04-16T10:26:49.197Z,1008.20
2023-04-16T10:27:49.169Z,1008.24
2023-04-16T10:28:49.181Z,1008.26
2023-04-16T10:29:49.186Z,1008.28
2023-04-16T10:30:49.173Z,1008.25
2023-04-16T10:31:49.121Z,1008.24
2023-04-16T10:32:49.151Z,1008.22
2023-04-16T10:33:54.118Z,1008.28
2023-04-16T10:34:49.094Z,1008.29
2023-04-16T10:35:57.936Z,1008.27
2023-04-16T10:36:49.077Z,1008.24
2023-04-16T10:37:49.085Z,1008.26
2023-04-16T10:38:49.051Z,1008.29
2023-04-16T10:39:49.023Z,1008.18
2023-04-16T10:40:49.069Z,1008.29
2023-04-16T10:41:49.002Z,1008.25
2023-04-16T10:42:48.989Z,1008.21
2023-04-16T10:43:48.979Z,1008.20
2023-04-16T10:44:54.035Z,1008.24
2023-04-16T10:45:49.021Z,1008.26
2023-04-16T10:46:48.943Z,1008.23
2023-04-16T10:47:48.981Z,1008.23
2023-04-16T10:48:50.591Z,1008.29
2023-04-16T10:49:48.914Z,1008.27
2023-04-16T10:50:49.936Z,1008.28
2023-04-16T10:51:48.887Z,1008.27
2023-04-16T10:52:48.874Z,1008.27
2023-04-16T10:53:48.865Z,1008.25
2023-04-16T10:54:48.852Z,1008.23
2023-04-16T10:55:53.882Z,1008.27
2023-04-16T10:56:48.841Z,1008.27
2023-04-16T10:57:48.823Z,1008.24
2023-04-16T10:58:48.807Z,1008.28
2023-04-16T10:59:48.834Z,1008.25
2023-04-16T11:00:48.829Z,1008.24
2023-04-16T11:01:48.987Z,1008.17
2023-04-16T11:02:48.934Z,1008.32
2023-04-16T11:03:48.920Z,1008.31
2023-04-16T11:04:49.225Z,1008.26
2023-04-16T11:05:48.729Z,1008.24
2023-04-16T11:06:53.737Z,1008.30
2023-04-16T11:07:49.745Z,1008.29
2023-04-16T11:08:54.586Z,1008.31
2023-04-16T11:09:49.737Z,1008.30
2023-04-16T11:10:48.674Z,1008.30
2023-04-16T11:11:48.663Z,1008.30
2023-04-16T11:12:48.676Z,1008.26
2023-04-16T11:13:48.698Z,1008.26
2023-04-16T11:14:48.665Z,1008.34
2023-04-16T11:15:48.640Z,1008.32
2023-04-16T11:16:48.672Z,1008.23
2023-04-16T11:17:53.648Z,1008.30
2023-04-16T11:18:51.730Z,1008.33
2023-04-16T11:19:48.577Z,1008.35
2023-04-16T11:20:48.578Z,1008.33
2023-04-16T11:21:48.546Z,1008.26
2023-04-16T11:22:48.533Z,1008.26
2023-04-16T11:23:48.540Z,1008.27
2023-04-16T11:24:48.515Z,1008.30
2023-04-16T11:25:48.511Z,1008.30
2023-04-16T11:26:48.552Z,1008.31
2023-04-16T11:27:48.484Z,1008.32
2023-04-16T11:28:53.487Z,1008.32
2023-04-16T11:29:48.459Z,1008.23
2023-04-16T11:30:48.456Z,1008.27
2023-04-16T11:31:48.526Z,1008.28
2023-04-16T11:32:48.498Z,1008.29
2023-04-16T11:33:48.419Z,1008.31
2023-04-16T11:34:48.398Z,1008.31
2023-04-16T11:35:48.397Z,1008.32
2023-04-16T11:36:48.413Z,1008.33
2023-04-16T11:37:48.431Z,1008.32
2023-04-16T11:38:48.381Z,1008.33
2023-04-16T11:39:53.381Z,1008.36
2023-04-16T11:40:48.338Z,1008.23
2023-04-16T11:41:48.322Z,1008.30
2023-04-16T11:42:48.311Z,1008.25
2023-04-16T11:43:48.302Z,1008.32
2023-04-16T11:44:48.303Z,1008.25
2023-04-16T11:45:48.284Z,1008.34
2023-04-16T11:46:48.359Z,1008.30
2023-04-16T11:47:48.262Z,1008.37
2023-04-16T11:48:48.281Z,1008.35
2023-04-16T11:49:48.238Z,1008.29
2023-04-16T11:50:53.291Z,1008.25
2023-04-16T11:51:48.212Z,1008.29
2023-04-16T11:52:48.198Z,1008.35
2023-04-16T11:53:48.197Z,1008.28
2023-04-16T11:54:48.174Z,1008.37
2023-04-16T11:55:48.180Z,1008.23
2023-04-16T11:56:48.278Z,1008.36
2023-04-16T11:57:48.142Z,1008.32
2023-04-16T11:58:48.128Z,1008.26
2023-04-16T12:00:02.473Z,1008.28
2023-04-16T12:00:48.115Z,1008.29
2023-04-16T12:01:53.235Z,1008.27
2023-04-16T12:02:48.178Z,1008.28
2023-04-16T12:03:48.222Z,1008.33
2023-04-16T12:04:48.222Z,1008.33
2023-04-16T12:05:48.062Z,1008.29